Time,TemperatureF,DewpointF,PressureIn,WindDirection,WindDirectionDegrees,WindSpeedMPH,WindSpeedGustMPH,Humidity,HourlyPrecipIn,Conditions,Clouds,dailyrainin,SolarRadiationWatts/m^2,SoftwareType,DateUTC
2013-07-29 00:04:00,53.0,49.8,29.83,SSW,206,1.5,5.8,89,0.00,,,0.00,0.0,WeatherDisplay:10.37,2013-07-29 07:04:00,
2013-07-29 00:09:00,53.1,49.9,29.82,South,186,8.2,12.7,89,0.00,,,0.00,0.0,WeatherDisplay:10.37,2013-07-29 07:09:00,
2013-07-29 00:14:00,53.1,49.9,29.83,South,185,5.5,6.9,89,0.00,,,0.00,0.0,WeatherDisplay:10.37,2013-07-29 07:14:00,
2013-07-29 00:19:00,53.2,50.0,29.83,SSW,192,6.7,18.4,89,0.00,,,0.00,0.0,WeatherDisplay:10.37,2013-07-29 07:19:00,
2013-07-29 00:24:00,53.2,50.0,29.82,SW,227,5.1,11.5,89,0.00,,,0.00,0.0,WeatherDisplay:10.37,2013-07-29 07:24:00,
2013-07-29 00:29:00,53.2,50.0,29.83,South,189,4.7,6.0,89,0.00,,,0.00,0.0,WeatherDisplay:10.37,2013-07-29 07:29:00,
2013-07-29 00:34:00,53.3,50.1,29.83,SE,146,1.2,5.8,89,0.00,,,0.00,0.0,WeatherDisplay:10.37,2013-07-29 07:34:00,
2013-07-29 00:39:00,53.4,50.2,29.83,SSW,201,2.4,4.6,89,0.00,,,0.00,0.0,WeatherDisplay:10.37,2013-07-29 07:39:00,
2013-07-29 00:44:00,53.4,50.2,29.82,South,186,4.1,6.9,89,0.00,,,0.00,0.0,WeatherDisplay:10.37,2013-07-29 07:44:00,
2013-07-29 00:49:00,53.4,50.2,29.82,SSE,162,6.3,12.7,89,0.00,,,0.00,0.0,WeatherDisplay:10.37,2013-07-29 07:49:00,
2013-07-29 00:54:00,53.4,50.2,29.82,South,190,3.7,6.9,89,0.00,,,0.00,0.0,WeatherDisplay:10.37,2013-07-29 07:54:00,
2013-07-29 00:59:00,53.3,50.1,29.82,SSW,192,3.2,8.1,89,0.00,,,0.00,0.0,WeatherDisplay:10.37,2013-07-29 07:59:00,
2013-07-29 01:04:00,53.4,50.2,29.82,SSE,148,5.5,11.5,89,0.00,,,0.00,0.0,WeatherDisplay:10.37,2013-07-29 08:04:00,
2013-07-29 01:09:00,53.4,50.2,29.83,SSW,208,1.3,3.5,89,0.00,,,0.00,0.0,WeatherDisplay:10.37,2013-07-29 08:09:00,
2013-07-29 01:14:00,53.5,50.3,29.82,SSE,167,2.0,5.0,89,0.00,,,0.00,0.0,WeatherDisplay:10.37,2013-07-29 08:14:00,
2013-07-29 01:19:00,53.5,50.3,29.83,SW,216,4.9,12.7,89,0.00,,,0.00,0.0,WeatherDisplay:10.37,2013-07-29 08:19:00,
2013-07-29 01:24:00,53.5,50.3,29.83,WNW,296,4.5,5.8,89,0.00,,,0.00,0.0,WeatherDisplay:10.37,2013-07-29 08:24:00,
2013-07-29 01:29:00,53.5,50.3,29.83,South,173,3.6,8.1,89,0.00,,,0.00,0.0,WeatherDisplay:10.37,2013-07-29 08:29:00,
2013-07-29 01:34:00,53.6,50.4,29.83,South,171,1.5,5.8,89,0.00,,,0.00,0.0,WeatherDisplay:10.37,2013-07-29 08:34:00,
2013-07-29 01:39:00,53.6,50.4,29.83,SSW,194,5.6,8.0,89,0.00,,,0.00,0.0,WeatherDisplay:10.37,2013-07-29 08:39:00,
2013-07-29 01:44:00,53.6,50.4,29.83,South,188,6.8,8.1,89,0.00,,,0.00,0.0,WeatherDisplay:10.37,2013-07-29 08:44:00,
2013-07-29 01:49:00,53.6,50.4,29.83,SSW,195,5.6,10.4,89,0.00,,,0.00,0.0,WeatherDisplay:10.37,2013-07-29 08:49:00,
2013-07-29 01:54:00,53.5,50.3,29.83,SSW,213,3.9,10.4,89,0.00,,,0.00,0.0,WeatherDisplay:10.37,2013-07-29 08:54:00,
2013-07-29 01:59:00,53.5,50.3,29.84,SW,225,8.5,16.1,89,0.00,,,0.00,0.0,WeatherDisplay:10.37,2013-07-29 08:59:00,
2013-07-29 02:04:00,53.5,50.3,29.83,South,186,5.4,9.2,89,0.00,,,0.00,0.0,WeatherDisplay:10.37,2013-07-29 09:04:00,
2013-07-29 02:09:00,53.6,50.4,29.83,SSW,200,8.1,15.0,89,0.00,,,0.00,0.0,WeatherDisplay:10.37,2013-07-29 09:09:00,
2013-07-29 02:14:00,53.6,50.4,29.83,SW,226,5.4,11.5,89,0.00,,,0.00,0.0,WeatherDisplay:10.37,2013-07-29 09:14:00,
2013-07-29 02:19:00,53.7,50.5,29.83,WSW,243,5.3,16.1,89,0.00,,,0.00,0.0,WeatherDisplay:10.37,2013-07-29 09:19:00,
2013-07-29 02:24:00,53.7,50.2,29.83,SSW,211,8.3,13.8,88,0.00,,,0.00,0.0,WeatherDisplay:10.37,2013-07-29 09:24:00,
2013-07-29 02:29:00,53.6,50.1,29.83,South,179,8.5,15.0,88,0.00,,,0.00,0.0,WeatherDisplay:10.37,2013-07-29 09:29:00,
2013-07-29 02:34:00,53.7,50.2,29.83,South,188,6.9,10.0,88,0.00,,,0.00,0.0,WeatherDisplay:10.37,2013-07-29 09:34:00,
2013-07-29 02:39:00,53.7,50.2,29.83,WNW,286,7.8,7.8,88,0.00,,,0.00,0.0,WeatherDisplay:10.37,2013-07-29 09:39:00,
2013-07-29 02:44:00,53.8,50.3,29.83,South,188,3.8,6.9,88,0.00,,,0.00,0.0,WeatherDisplay:10.37,2013-07-29 09:44:00,
2013-07-29 02:49:00,53.9,50.4,29.83,South,183,4.0,9.2,88,0.00,,,0.00,0.0,WeatherDisplay:10.37,2013-07-29 09:49:00,
2013-07-29 02:54:00,53.9,50.4,29.83,South,188,6.4,9.2,88,0.00,,,0.00,0.0,WeatherDisplay:10.37,2013-07-29 09:54:00,
2013-07-29 02:59:00,53.8,50.3,29.83,South,180,4.0,11.5,88,0.00,,,0.00,0.0,WeatherDisplay:10.37,2013-07-29 09:59:00,
2013-07-29 03:04:00,53.9,50.4,29.83,South,183,3.4,5.8,88,0.00,,,0.00,0.0,WeatherDisplay:10.37,2013-07-29 10:04:00,
2013-07-29 03:09:00,53.9,50.4,29.83,SSW,192,2.8,7.0,88,0.00,,,0.00,0.0,WeatherDisplay:10.37,2013-07-29 10:09:00,
2013-07-29 03:14:00,53.9,50.4,29.83,South,182,3.8,5.8,88,0.00,,,0.00,0.0,WeatherDisplay:10.37,2013-07-29 10:14:00,
2013-07-29 03:19:00,53.9,50.4,29.83,South,188,3.0,3.5,88,0.00,,,0.00,0.0,WeatherDisplay:10.37,2013-07-29 10:19:00,
2013-07-29 03:25:00,53.9,50.7,29.83,South,178,4.7,6.9,89,0.00,,,0.00,0.0,WeatherDisplay:10.37,2013-07-29 10:25:00,
2013-07-29 03:32:00,54.0,50.8,29.83,SSW,193,6.4,8.1,89,0.00,,,0.00,0.0,WeatherDisplay:10.37,2013-07-29 10:32:00,
2013-07-29 03:37:00,54.0,50.8,29.83,WSW,241,5.3,11.5,89,0.00,,,0.00,0.0,WeatherDisplay:10.37,2013-07-29 10:37:00,
2013-07-29 03:43:00,54.0,50.5,29.83,SSW,209,4.7,8.1,88,0.00,,,0.00,0.0,WeatherDisplay:10.37,2013-07-29 10:43:00,
2013-07-29 03:50:00,54.0,50.8,29.83,South,190,3.9,8.1,89,0.00,,,0.00,0.0,WeatherDisplay:10.37,2013-07-29 10:50:00,
2013-07-29 03:55:00,54.0,50.8,29.83,South,179,4.0,5.8,89,0.00,,,0.00,0.0,WeatherDisplay:10.37,2013-07-29 10:55:00,
2013-07-29 04:00:00,54.1,50.9,29.83,South,183,9.3,15.0,89,0.00,,,0.00,0.0,WeatherDisplay:10.37,2013-07-29 11:00:00,
2013-07-29 04:05:00,54.1,50.6,29.83,SSW,198,6.5,10.4,88,0.00,,,0.00,0.0,WeatherDisplay:10.37,2013-07-29 11:05:00,
2013-07-29 04:10:00,54.1,50.6,29.84,NNW,333,6.6,9.2,88,0.00,,,0.00,0.0,WeatherDisplay:10.37,2013-07-29 11:10:00,
2013-07-29 04:15:00,54.1,50.6,29.84,SSW,192,3.4,9.2,88,0.00,,,0.00,0.0,WeatherDisplay:10.37,2013-07-29 11:15:00,
2013-07-29 04:21:00,54.2,50.7,29.83,South,182,3.9,8.1,88,0.00,,,0.00,0.0,WeatherDisplay:10.37,2013-07-29 11:21:00,
2013-07-29 04:27:00,54.2,50.7,29.84,SW,219,5.5,17.3,88,0.00,,,0.00,0.0,WeatherDisplay:10.37,2013-07-29 11:27:00,
2013-07-29 04:32:00,54.2,50.7,29.84,South,171,1.8,3.5,88,0.00,,,0.00,0.0,WeatherDisplay:10.37,2013-07-29 11:32:00,
2013-07-29 04:37:00,54.3,50.8,29.84,SSW,200,4.2,5.8,88,0.00,,,0.00,0.0,WeatherDisplay:10.37,2013-07-29 11:37:00,
2013-07-29 04:45:00,54.3,50.8,29.84,South,186,6.9,12.7,88,0.00,,,0.00,0.0,WeatherDisplay:10.37,2013-07-29 11:45:00,
2013-07-29 04:50:00,54.3,50.8,29.84,WSW,255,6.2,8.1,88,0.00,,,0.00,0.0,WeatherDisplay:10.37,2013-07-29 11:50:00,
2013-07-29 04:56:00,54.3,50.8,29.84,SSW,196,6.0,16.0,88,0.00,,,0.00,0.0,WeatherDisplay:10.37,2013-07-29 11:56:00,
2013-07-29 05:01:00,54.3,50.5,29.84,SSW,194,3.6,6.9,87,0.00,,,0.00,0.0,WeatherDisplay:10.37,2013-07-29 12:01:00,
2013-07-29 05:06:00,54.4,50.6,29.84,SSW,204,4.5,6.9,87,0.00,,,0.00,0.0,WeatherDisplay:10.37,2013-07-29 12:06:00,
2013-07-29 05:11:00,54.4,50.6,29.84,South,180,3.2,5.8,87,0.00,,,0.00,0.0,WeatherDisplay:10.37,2013-07-29 12:11:00,
2013-07-29 05:16:00,54.4,50.6,29.84,SSW,211,1.5,3.5,87,0.00,,,0.00,0.0,WeatherDisplay:10.37,2013-07-29 12:16:00,
2013-07-29 05:21:00,54.4,50.6,29.84,SSW,196,5.4,6.9,87,0.00,,,0.00,0.0,WeatherDisplay:10.37,2013-07-29 12:21:00,
2013-07-29 05:27:00,54.4,50.6,29.84,South,182,3.4,6.9,87,0.00,,,0.00,0.0,WeatherDisplay:10.37,2013-07-29 12:27:00,
2013-07-29 05:33:00,54.4,50.6,29.84,SSW,193,4.1,6.9,87,0.00,,,0.00,0.0,WeatherDisplay:10.37,2013-07-29 12:33:00,
2013-07-29 05:38:00,54.4,50.9,29.85,South,188,5.0,10.4,88,0.00,,,0.00,0.0,WeatherDisplay:10.37,2013-07-29 12:38:00,
2013-07-29 05:44:00,54.3,50.5,29.85,SSW,201,6.0,10.4,87,0.00,,,0.00,0.0,WeatherDisplay:10.37,2013-07-29 12:44:00,
2013-07-29 05:49:00,54.3,50.5,29.85,SSW,194,5.6,15.0,87,0.00,,,0.00,0.0,WeatherDisplay:10.37,2013-07-29 12:49:00,
2013-07-29 05:55:00,54.5,50.7,29.86,South,187,4.4,6.9,87,0.00,,,0.00,0.0,WeatherDisplay:10.37,2013-07-29 12:55:00,
2013-07-29 06:00:00,54.5,50.7,29.86,SSW,192,4.0,8.1,87,0.00,,,0.00,0.0,WeatherDisplay:10.37,2013-07-29 13:00:00,
2013-07-29 06:05:00,54.5,51.0,29.86,South,188,4.0,6.0,88,0.00,,,0.00,0.0,WeatherDisplay:10.37,2013-07-29 13:05:00,
2013-07-29 06:11:00,54.4,50.9,29.86,SSW,196,4.2,4.2,88,0.00,,,0.00,0.0,WeatherDisplay:10.37,2013-07-29 13:11:00,
2013-07-29 06:16:00,54.4,50.9,29.86,South,184,6.0,9.2,88,0.00,,,0.00,0.0,WeatherDisplay:10.37,2013-07-29 13:16:00,
2013-07-29 06:21:00,54.5,51.0,29.86,ESE,102,1.9,3.5,88,0.00,,,0.00,0.0,WeatherDisplay:10.37,2013-07-29 13:21:00,
2013-07-29 06:26:00,54.4,50.9,29.86,SSW,203,4.7,7.0,88,0.00,,,0.00,0.0,WeatherDisplay:10.37,2013-07-29 13:26:00,
2013-07-29 06:31:00,54.5,51.0,29.87,WNW,294,5.1,8.1,88,0.00,,,0.00,0.0,WeatherDisplay:10.37,2013-07-29 13:31:00,
2013-07-29 06:36:00,54.5,51.0,29.87,SSW,198,4.2,8.1,88,0.00,,,0.00,5.0,WeatherDisplay:10.37,2013-07-29 13:36:00,
2013-07-29 06:41:00,54.5,51.0,29.87,South,190,6.3,10.4,88,0.00,BKN,,0.00,5.0,WeatherDisplay:10.37,2013-07-29 13:41:00,
2013-07-29 06:46:00,54.5,51.0,29.87,SSW,193,6.0,15.0,88,0.00,BKN,,0.00,7.0,WeatherDisplay:10.37,2013-07-29 13:46:00,
2013-07-29 06:51:00,54.5,51.0,29.87,South,187,5.5,8.1,88,0.00,BKN,,0.00,7.0,WeatherDisplay:10.37,2013-07-29 13:51:00,
2013-07-29 06:56:00,54.5,51.0,29.87,South,176,4.3,6.9,88,0.00,BKN,,0.00,9.0,WeatherDisplay:10.37,2013-07-29 13:56:00,
2013-07-29 07:01:00,54.5,51.0,29.87,SSW,196,3.8,6.9,88,0.00,BKN,,0.00,14.0,WeatherDisplay:10.37,2013-07-29 14:01:00,
2013-07-29 07:07:00,54.6,51.1,29.88,South,173,5.0,8.1,88,0.00,BKN,,0.00,16.0,WeatherDisplay:10.37,2013-07-29 14:07:00,
2013-07-29 07:12:00,54.6,51.1,29.88,SSW,195,4.7,5.8,88,0.00,BKN,,0.00,19.0,WeatherDisplay:10.37,2013-07-29 14:12:00,
2013-07-29 07:18:00,54.7,51.2,29.88,South,180,0.8,3.5,88,0.00,BKN,,0.00,21.0,WeatherDisplay:10.37,2013-07-29 14:18:00,
2013-07-29 07:23:00,54.7,51.2,29.88,South,174,4.5,5.8,88,0.00,BKN,,0.00,21.0,WeatherDisplay:10.37,2013-07-29 14:23:00,
2013-07-29 07:28:00,54.8,51.3,29.89,South,178,1.2,3.5,88,0.00,BKN,,0.00,23.0,WeatherDisplay:10.37,2013-07-29 14:28:00,
2013-07-29 07:33:00,54.8,51.0,29.89,SSW,192,3.3,5.8,87,0.00,BKN,,0.00,25.0,WeatherDisplay:10.37,2013-07-29 14:33:00,
2013-07-29 07:38:00,54.8,51.0,29.89,South,171,1.8,7.0,87,0.00,BKN,,0.00,28.0,WeatherDisplay:10.37,2013-07-29 14:38:00,
2013-07-29 07:43:00,54.8,51.0,29.89,South,188,3.2,5.0,87,0.00,BKN,,0.00,26.0,WeatherDisplay:10.37,2013-07-29 14:43:00,
2013-07-29 07:49:00,54.9,51.1,29.89,South,175,3.0,8.1,87,0.00,BKN,,0.00,33.0,WeatherDisplay:10.37,2013-07-29 14:49:00,
2013-07-29 07:54:00,54.9,51.1,29.90,South,184,1.2,3.5,87,0.00,BKN,,0.00,33.0,WeatherDisplay:10.37,2013-07-29 14:54:00,
2013-07-29 07:59:00,54.9,51.1,29.90,SSW,206,1.4,2.3,87,0.00,BKN,,0.00,33.0,WeatherDisplay:10.37,2013-07-29 14:59:00,
2013-07-29 08:05:00,54.9,51.4,29.90,South,178,1.7,3.5,88,0.00,BKN,,0.00,37.0,WeatherDisplay:10.37,2013-07-29 15:05:00,
2013-07-29 08:10:00,54.9,51.4,29.90,SSE,167,5.5,10.4,88,0.00,BKN,,0.00,42.0,WeatherDisplay:10.37,2013-07-29 15:10:00,
2013-07-29 08:15:00,54.9,51.4,29.90,South,178,6.4,15.0,88,0.00,BKN,,0.00,47.0,WeatherDisplay:10.37,2013-07-29 15:15:00,
2013-07-29 08:20:00,54.9,51.4,29.91,SSW,204,7.2,14.0,88,0.00,BKN,,0.00,42.0,WeatherDisplay:10.37,2013-07-29 15:20:00,
2013-07-29 08:25:00,54.8,51.3,29.91,SSW,193,5.0,7.0,88,0.00,BKN,,0.00,60.0,WeatherDisplay:10.37,2013-07-29 15:25:00,
2013-07-29 08:32:00,54.9,51.4,29.91,SSW,195,0.8,3.5,88,0.00,BKN,,0.00,62.0,WeatherDisplay:10.37,2013-07-29 15:32:00,
2013-07-29 08:37:00,54.9,51.4,29.91,SW,225,6.7,9.2,88,0.00,BKN,,0.00,54.0,WeatherDisplay:10.37,2013-07-29 15:37:00,
2013-07-29 08:42:00,54.9,51.4,29.92,SSW,198,3.5,11.5,88,0.00,BKN,,0.00,51.0,WeatherDisplay:10.37,2013-07-29 15:42:00,
2013-07-29 08:47:00,54.9,51.4,29.92,SSW,200,6.0,8.1,88,0.00,BKN,,0.00,67.0,WeatherDisplay:10.37,2013-07-29 15:47:00,
2013-07-29 08:53:00,55.0,51.5,29.92,SW,221,4.6,9.2,88,0.00,BKN,,0.00,76.0,WeatherDisplay:10.37,2013-07-29 15:53:00,
2013-07-29 08:58:00,55.0,51.5,29.92,SSE,153,3.9,5.8,88,0.00,BKN,,0.00,81.0,WeatherDisplay:10.37,2013-07-29 15:58:00,
2013-07-29 09:03:00,55.1,51.6,29.92,SW,223,3.6,3.6,88,0.00,BKN,,0.00,90.0,WeatherDisplay:10.37,2013-07-29 16:03:00,
2013-07-29 09:08:00,55.1,51.6,29.92,SSW,199,4.5,8.1,88,0.00,BKN,,0.00,97.0,WeatherDisplay:10.37,2013-07-29 16:08:00,
2013-07-29 09:13:00,55.1,51.3,29.92,SW,233,2.2,8.1,87,0.00,BKN,,0.00,95.0,WeatherDisplay:10.37,2013-07-29 16:13:00,
2013-07-29 09:20:00,55.2,51.4,29.92,South,180,1.8,3.5,87,0.00,BKN,,0.00,95.0,WeatherDisplay:10.37,2013-07-29 16:20:00,
2013-07-29 09:25:00,55.2,51.4,29.92,NNW,331,4.6,6.9,87,0.00,BKN,,0.00,100.0,WeatherDisplay:10.37,2013-07-29 16:25:00,
2013-07-29 09:30:00,55.3,51.8,29.92,SSE,159,3.6,5.8,88,0.00,BKN,,0.00,105.0,WeatherDisplay:10.37,2013-07-29 16:30:00,
2013-07-29 09:35:00,55.2,51.4,29.92,SSW,198,5.0,6.9,87,0.00,BKN,,0.00,105.0,WeatherDisplay:10.37,2013-07-29 16:35:00,
2013-07-29 09:40:00,55.2,51.4,29.92,SSW,208,6.8,12.7,87,0.00,BKN,,0.00,130.0,WeatherDisplay:10.37,2013-07-29 16:40:00,
2013-07-29 09:45:00,55.3,51.5,29.93,South,175,4.6,6.9,87,0.00,BKN,,0.00,134.0,WeatherDisplay:10.37,2013-07-29 16:45:00,
2013-07-29 09:50:00,55.4,51.6,29.93,SSW,194,4.9,11.5,87,0.00,BKN,,0.00,135.0,WeatherDisplay:10.37,2013-07-29 16:50:00,
2013-07-29 09:55:00,55.5,51.7,29.93,SSW,210,2.3,6.9,87,0.00,BKN,,0.00,165.0,WeatherDisplay:10.37,2013-07-29 16:55:00,
2013-07-29 10:01:00,55.6,51.5,29.93,SSE,160,5.9,11.5,86,0.00,BKN,,0.00,162.0,WeatherDisplay:10.37,2013-07-29 17:01:00,
2013-07-29 10:07:00,55.7,51.6,29.93,South,190,4.0,11.5,86,0.00,BKN,,0.00,149.0,WeatherDisplay:10.37,2013-07-29 17:07:00,
2013-07-29 10:12:00,55.7,51.6,29.93,SW,218,5.7,12.7,86,0.00,BKN,,0.00,148.0,WeatherDisplay:10.37,2013-07-29 17:12:00,
2013-07-29 10:17:00,55.8,51.7,29.94,SSW,199,6.4,9.2,86,0.00,BKN,,0.00,142.0,WeatherDisplay:10.37,2013-07-29 17:17:00,
2013-07-29 10:22:00,55.8,51.7,29.94,South,180,4.5,6.9,86,0.00,BKN,,0.00,176.0,WeatherDisplay:10.37,2013-07-29 17:22:00,
2013-07-29 10:27:00,55.8,51.7,29.94,South,179,6.0,11.5,86,0.00,BKN,,0.00,165.0,WeatherDisplay:10.37,2013-07-29 17:27:00,
2013-07-29 10:32:00,56.0,51.9,29.94,SSW,196,7.5,11.5,86,0.00,BKN,,0.00,178.0,WeatherDisplay:10.37,2013-07-29 17:32:00,
2013-07-29 10:38:00,55.9,51.8,29.94,SSW,207,9.9,12.7,86,0.00,BKN,,0.00,176.0,WeatherDisplay:10.37,2013-07-29 17:38:00,
2013-07-29 10:43:00,55.8,51.7,29.94,SSE,157,8.0,11.5,86,0.00,BKN,,0.00,188.0,WeatherDisplay:10.37,2013-07-29 17:43:00,
2013-07-29 10:50:00,55.8,51.7,29.95,SSW,193,8.1,10.4,86,0.00,BKN,,0.00,162.0,WeatherDisplay:10.37,2013-07-29 17:50:00,
2013-07-29 10:56:00,55.8,51.7,29.95,SSW,207,6.0,13.0,86,0.00,BKN,,0.00,141.0,WeatherDisplay:10.37,2013-07-29 17:56:00,
2013-07-29 11:02:00,55.9,52.1,29.95,South,183,4.7,8.1,87,0.00,BKN,,0.00,176.0,WeatherDisplay:10.37,2013-07-29 18:02:00,
2013-07-29 11:08:00,55.8,52.0,29.95,South,186,4.7,11.5,87,0.00,BKN,,0.00,206.0,WeatherDisplay:10.37,2013-07-29 18:08:00,
2013-07-29 11:13:00,55.7,51.9,29.96,SSW,198,5.8,11.5,87,0.00,BKN,,0.00,183.0,WeatherDisplay:10.37,2013-07-29 18:13:00,
2013-07-29 11:18:00,55.8,52.0,29.96,South,188,8.2,12.7,87,0.00,BKN,,0.00,220.0,WeatherDisplay:10.37,2013-07-29 18:18:00,
2013-07-29 11:23:00,55.8,52.0,29.95,South,178,4.4,10.4,87,0.00,BKN,,0.00,188.0,WeatherDisplay:10.37,2013-07-29 18:23:00,
2013-07-29 11:28:00,56.0,52.2,29.95,SSW,198,7.3,12.7,87,0.00,BKN,,0.00,199.0,WeatherDisplay:10.37,2013-07-29 18:28:00,
2013-07-29 11:33:00,56.0,51.9,29.95,SSW,203,9.1,17.3,86,0.00,BKN,,0.00,174.0,WeatherDisplay:10.37,2013-07-29 18:33:00,
2013-07-29 11:38:00,56.0,51.9,29.95,South,178,5.5,15.0,86,0.00,BKN,,0.00,204.0,WeatherDisplay:10.37,2013-07-29 18:38:00,
2013-07-29 11:43:00,56.0,51.9,29.95,South,177,5.5,9.2,86,0.00,BKN,,0.00,209.0,WeatherDisplay:10.37,2013-07-29 18:43:00,
2013-07-29 11:48:00,56.2,52.1,29.95,South,173,6.3,10.4,86,0.00,BKN,,0.00,230.0,WeatherDisplay:10.37,2013-07-29 18:48:00,
2013-07-29 11:53:00,56.3,52.2,29.95,SSW,198,7.2,10.4,86,0.00,BKN,,0.00,237.0,WeatherDisplay:10.37,2013-07-29 18:53:00,
2013-07-29 11:59:00,56.4,52.3,29.96,SSW,196,10.3,17.3,86,0.00,BKN,,0.00,243.0,WeatherDisplay:10.37,2013-07-29 18:59:00,
2013-07-29 12:04:00,56.6,52.1,29.95,South,179,8.9,15.0,85,0.00,BKN,,0.00,304.0,WeatherDisplay:10.37,2013-07-29 19:04:00,
2013-07-29 12:10:00,57.0,52.5,29.95,SSE,163,10.2,18.4,85,0.00,BKN,,0.00,390.0,WeatherDisplay:10.37,2013-07-29 19:10:00,
2013-07-29 12:15:00,57.0,52.2,29.95,South,188,6.5,15.0,84,0.00,BKN,,0.00,374.0,WeatherDisplay:10.37,2013-07-29 19:15:00,
2013-07-29 12:20:00,57.1,52.3,29.95,South,175,13.2,20.7,84,0.00,SCT,,0.00,763.0,WeatherDisplay:10.37,2013-07-29 19:20:00,
2013-07-29 12:26:00,57.6,52.5,29.95,South,188,14.0,25.0,83,0.00,CLR,,0.00,1069.0,WeatherDisplay:10.37,2013-07-29 19:26:00,
2013-07-29 12:31:00,58.0,52.5,29.95,SSW,195,10.0,12.7,82,0.00,CLR,,0.00,1025.0,WeatherDisplay:10.37,2013-07-29 19:31:00,
2013-07-29 12:37:00,58.7,52.5,29.95,South,190,12.7,16.1,80,0.00,CLR,,0.00,1020.0,WeatherDisplay:10.37,2013-07-29 19:37:00,
2013-07-29 12:42:00,58.6,52.4,29.95,SSW,195,13.7,19.6,80,0.00,CLR,,0.00,965.0,WeatherDisplay:10.37,2013-07-29 19:42:00,
2013-07-29 12:48:00,58.9,52.7,29.95,South,179,14.5,19.6,80,0.00,CLR,,0.00,1005.0,WeatherDisplay:10.37,2013-07-29 19:48:00,
2013-07-29 12:54:00,59.0,52.5,29.95,South,190,15.1,19.6,79,0.00,CLR,,0.00,1009.0,WeatherDisplay:10.37,2013-07-29 19:54:00,
2013-07-29 12:59:00,59.1,52.6,29.95,South,178,14.1,18.4,79,0.00,CLR,,0.00,981.0,WeatherDisplay:10.37,2013-07-29 19:59:00,
2013-07-29 13:04:00,59.1,52.6,29.95,South,183,8.1,13.8,79,0.00,CLR,,0.00,986.0,WeatherDisplay:10.37,2013-07-29 20:04:00,
2013-07-29 13:09:00,59.7,53.2,29.95,SW,230,11.0,13.0,79,0.00,CLR,,0.00,1014.0,WeatherDisplay:10.37,2013-07-29 20:09:00,
2013-07-29 13:14:00,59.9,53.4,29.95,SSW,200,7.6,18.4,79,0.00,CLR,,0.00,986.0,WeatherDisplay:10.37,2013-07-29 20:14:00,
2013-07-29 13:19:00,60.3,53.8,29.95,South,178,9.0,20.0,79,0.00,CLR,,0.00,1007.0,WeatherDisplay:10.37,2013-07-29 20:19:00,
2013-07-29 13:24:00,60.7,53.4,29.95,South,180,8.2,12.7,77,0.00,CLR,,0.00,984.0,WeatherDisplay:10.37,2013-07-29 20:24:00,
2013-07-29 13:30:00,60.8,53.2,29.95,SSW,196,11.9,15.0,76,0.00,CLR,,0.00,977.0,WeatherDisplay:10.37,2013-07-29 20:30:00,
2013-07-29 13:35:00,60.6,53.3,29.95,SW,214,7.8,11.5,77,0.00,CLR,,0.00,972.0,WeatherDisplay:10.37,2013-07-29 20:35:00,
2013-07-29 13:40:00,61.5,53.9,29.95,SSW,211,6.7,12.7,76,0.00,CLR,,0.00,928.0,WeatherDisplay:10.37,2013-07-29 20:40:00,
2013-07-29 13:46:00,61.0,53.4,29.95,South,183,8.0,20.0,76,0.00,CLR,,0.00,956.0,WeatherDisplay:10.37,2013-07-29 20:46:00,
2013-07-29 13:52:00,61.5,53.5,29.95,South,180,6.0,10.0,75,0.00,CLR,,0.00,976.0,WeatherDisplay:10.37,2013-07-29 20:52:00,
2013-07-29 13:57:00,61.5,53.9,29.95,SSW,203,4.2,6.9,76,0.00,CLR,,0.00,962.0,WeatherDisplay:10.37,2013-07-29 20:57:00,
2013-07-29 14:02:00,61.9,53.9,29.95,SSW,208,6.2,9.2,75,0.00,CLR,,0.00,951.0,WeatherDisplay:10.37,2013-07-29 21:02:00,
2013-07-29 14:07:00,61.9,53.5,29.95,South,190,6.6,11.5,74,0.00,FEW,,0.00,912.0,WeatherDisplay:10.37,2013-07-29 21:07:00,
2013-07-29 14:14:00,62.3,53.9,29.95,SSE,168,6.4,10.0,74,0.00,CLR,,0.00,951.0,WeatherDisplay:10.37,2013-07-29 21:14:00,
2013-07-29 14:19:00,61.8,53.1,29.94,South,180,14.2,21.9,73,0.00,CLR,,0.00,930.0,WeatherDisplay:10.37,2013-07-29 21:19:00,
2013-07-29 14:24:00,61.6,53.6,29.95,SSW,194,6.1,6.9,75,0.00,CLR,,0.00,944.0,WeatherDisplay:10.37,2013-07-29 21:24:00,
2013-07-29 14:29:00,61.6,53.2,29.94,SSW,197,14.8,24.2,74,0.00,CLR,,0.00,940.0,WeatherDisplay:10.37,2013-07-29 21:29:00,
2013-07-29 14:34:00,61.1,53.5,29.94,SSW,207,9.0,11.5,76,0.00,CLR,,0.00,979.0,WeatherDisplay:10.37,2013-07-29 21:34:00,
2013-07-29 14:39:00,60.7,52.7,29.95,South,182,11.1,16.1,75,0.00,CLR,,0.00,1067.0,WeatherDisplay:10.37,2013-07-29 21:39:00,
2013-07-29 14:44:00,60.6,53.3,29.95,SSW,213,6.8,10.4,77,0.00,CLR,,0.00,1005.0,WeatherDisplay:10.37,2013-07-29 21:44:00,
2013-07-29 14:49:00,60.7,53.1,29.94,SSW,192,7.1,13.8,76,0.00,CLR,,0.00,1005.0,WeatherDisplay:10.37,2013-07-29 21:49:00,
2013-07-29 14:54:00,60.8,53.2,29.95,SSW,198,10.6,17.3,76,0.00,CLR,,0.00,1005.0,WeatherDisplay:10.37,2013-07-29 21:54:00,
2013-07-29 15:00:00,60.8,53.2,29.95,SSE,154,8.0,17.3,76,0.00,FEW,,0.00,761.0,WeatherDisplay:10.37,2013-07-29 22:00:00,
2013-07-29 15:05:00,60.7,53.1,29.95,SW,214,9.4,17.3,76,0.00,SCT,,0.00,503.0,WeatherDisplay:10.37,2013-07-29 22:05:00,
2013-07-29 15:12:00,60.5,52.9,29.95,South,188,8.3,18.4,76,0.00,SCT,,0.00,555.0,WeatherDisplay:10.37,2013-07-29 22:12:00,
2013-07-29 15:17:00,60.9,53.6,29.95,South,176,6.7,6.9,77,0.00,SCT,,0.00,656.0,WeatherDisplay:10.37,2013-07-29 22:17:00,
2013-07-29 15:23:00,61.3,53.3,29.95,South,178,7.5,12.7,75,0.00,SCT,,0.00,656.0,WeatherDisplay:10.37,2013-07-29 22:23:00,
2013-07-29 15:28:00,61.4,53.4,29.95,SW,215,3.5,10.4,75,0.00,CLR,,0.00,912.0,WeatherDisplay:10.37,2013-07-29 22:28:00,
2013-07-29 15:33:00,61.5,53.5,29.95,South,175,4.9,10.4,75,0.00,CLR,,0.00,865.0,WeatherDisplay:10.37,2013-07-29 22:33:00,
2013-07-29 15:38:00,61.4,53.4,29.94,SSE,148,9.5,18.4,75,0.00,CLR,,0.00,721.0,WeatherDisplay:10.37,2013-07-29 22:38:00,
2013-07-29 15:43:00,61.5,53.1,29.95,SSW,199,7.5,11.5,74,0.00,CLR,,0.00,775.0,WeatherDisplay:10.37,2013-07-29 22:43:00,
2013-07-29 15:49:00,61.6,53.2,29.94,SSW,202,10.1,12.7,74,0.00,CLR,,0.00,759.0,WeatherDisplay:10.37,2013-07-29 22:49:00,
2013-07-29 15:54:00,61.8,53.4,29.94,SSW,200,4.9,9.2,74,0.00,CLR,,0.00,751.0,WeatherDisplay:10.37,2013-07-29 22:54:00,
2013-07-29 15:59:00,61.6,53.2,29.94,SSW,198,9.1,11.5,74,0.00,CLR,,0.00,726.0,WeatherDisplay:10.37,2013-07-29 22:59:00,
2013-07-29 16:04:00,61.4,53.0,29.94,SSW,194,8.2,10.4,74,0.00,CLR,,0.00,712.0,WeatherDisplay:10.37,2013-07-29 23:04:00,
2013-07-29 16:09:00,61.2,53.2,29.94,SSW,203,10.9,15.0,75,0.00,CLR,,0.00,717.0,WeatherDisplay:10.37,2013-07-29 23:09:00,
2013-07-29 16:14:00,60.9,52.6,29.94,South,188,13.3,20.7,74,0.00,CLR,,0.00,701.0,WeatherDisplay:10.37,2013-07-29 23:14:00,
2013-07-29 16:20:00,61.0,53.0,29.94,SSW,206,9.4,19.6,75,0.00,CLR,,0.00,675.0,WeatherDisplay:10.37,2013-07-29 23:20:00,
2013-07-29 16:25:00,61.3,52.9,29.93,SSW,195,16.7,21.9,74,0.00,CLR,,0.00,663.0,WeatherDisplay:10.37,2013-07-29 23:25:00,
2013-07-29 16:31:00,61.2,52.8,29.94,South,169,10.7,19.6,74,0.00,CLR,,0.00,649.0,WeatherDisplay:10.37,2013-07-29 23:31:00,
2013-07-29 16:39:00,60.9,52.9,29.94,South,177,14.5,21.9,75,0.00,CLR,,0.00,613.0,WeatherDisplay:10.37,2013-07-29 23:39:00,
2013-07-29 16:44:00,61.0,53.0,29.93,SSW,196,13.2,18.4,75,0.00,CLR,,0.00,605.0,WeatherDisplay:10.37,2013-07-29 23:44:00,
2013-07-29 16:49:00,61.3,52.9,29.94,South,187,11.1,18.4,74,0.00,CLR,,0.00,587.0,WeatherDisplay:10.37,2013-07-29 23:49:00,
2013-07-29 16:54:00,60.9,52.6,29.94,South,186,15.8,25.3,74,0.00,CLR,,0.00,577.0,WeatherDisplay:10.37,2013-07-29 23:54:00,
2013-07-29 16:59:00,61.1,52.7,29.94,SSW,192,9.6,19.6,74,0.00,CLR,,0.00,555.0,WeatherDisplay:10.37,2013-07-29 23:59:00,
2013-07-29 17:04:00,60.9,52.6,29.93,South,190,12.6,23.0,74,0.00,CLR,,0.00,540.0,WeatherDisplay:10.37,2013-07-30 00:04:00,
2013-07-29 17:10:00,60.9,52.6,29.93,SSE,153,11.5,16.1,74,0.00,CLR,,0.00,492.0,WeatherDisplay:10.37,2013-07-30 00:10:00,
2013-07-29 17:15:00,61.1,53.1,29.93,SSW,203,13.8,21.9,75,0.00,FEW,,0.00,443.0,WeatherDisplay:10.37,2013-07-30 00:15:00,
2013-07-29 17:20:00,61.3,52.9,29.93,South,183,11.9,19.6,74,0.00,FEW,,0.00,445.0,WeatherDisplay:10.37,2013-07-30 00:20:00,
2013-07-29 17:26:00,61.5,53.1,29.93,South,190,12.0,20.0,74,0.00,FEW,,0.00,408.0,WeatherDisplay:10.37,2013-07-30 00:26:00,
2013-07-29 17:32:00,61.2,52.8,29.93,SSW,196,12.0,13.8,74,0.00,FEW,,0.00,374.0,WeatherDisplay:10.37,2013-07-30 00:32:00,
2013-07-29 17:38:00,61.2,52.8,29.93,South,185,10.7,16.1,74,0.00,FEW,,0.00,381.0,WeatherDisplay:10.37,2013-07-30 00:38:00,
2013-07-29 17:43:00,61.0,52.7,29.93,South,188,7.1,11.5,74,0.00,FEW,,0.00,367.0,WeatherDisplay:10.37,2013-07-30 00:43:00,
2013-07-29 17:48:00,61.1,53.1,29.93,South,190,10.1,15.0,75,0.00,FEW,,0.00,330.0,WeatherDisplay:10.37,2013-07-30 00:48:00,
2013-07-29 17:54:00,60.9,52.6,29.93,SSW,196,10.1,15.0,74,0.00,FEW,,0.00,297.0,WeatherDisplay:10.37,2013-07-30 00:54:00,
2013-07-29 18:00:00,60.8,52.8,29.93,South,188,6.2,9.2,75,0.00,FEW,,0.00,283.0,WeatherDisplay:10.37,2013-07-30 01:00:00,
2013-07-29 18:05:00,60.9,52.9,29.93,South,186,4.9,6.9,75,0.00,FEW,,0.00,292.0,WeatherDisplay:10.37,2013-07-30 01:05:00,
2013-07-29 18:10:00,61.2,52.8,29.93,South,183,5.9,8.1,74,0.00,FEW,,0.00,276.0,WeatherDisplay:10.37,2013-07-30 01:10:00,
2013-07-29 18:15:00,61.1,53.1,29.93,South,180,5.7,9.2,75,0.00,FEW,,0.00,250.0,WeatherDisplay:10.37,2013-07-30 01:15:00,
2013-07-29 18:20:00,61.1,52.7,29.93,SSW,192,5.4,11.5,74,0.00,SCT,,0.00,216.0,WeatherDisplay:10.37,2013-07-30 01:20:00,
2013-07-29 18:25:00,60.8,52.8,29.93,SSW,192,7.5,10.4,75,0.00,SCT,,0.00,186.0,WeatherDisplay:10.37,2013-07-30 01:25:00,
2013-07-29 18:30:00,60.7,52.7,29.93,South,183,7.4,9.2,75,0.00,SCT,,0.00,176.0,WeatherDisplay:10.37,2013-07-30 01:30:00,
2013-07-29 18:36:00,60.5,52.5,29.93,South,189,6.0,12.0,75,0.00,SCT,,0.00,155.0,WeatherDisplay:10.37,2013-07-30 01:36:00,
2013-07-29 18:42:00,60.5,52.5,29.93,South,187,3.9,6.9,75,0.00,BKN,,0.00,104.0,WeatherDisplay:10.37,2013-07-30 01:42:00,
2013-07-29 18:47:00,60.3,52.3,29.93,South,179,6.5,9.2,75,0.00,BKN,,0.00,93.0,WeatherDisplay:10.37,2013-07-30 01:47:00,
2013-07-29 18:52:00,59.9,52.0,29.93,South,188,7.3,11.5,75,0.00,BKN,,0.00,93.0,WeatherDisplay:10.37,2013-07-30 01:52:00,
2013-07-29 18:57:00,59.6,52.0,29.93,South,169,5.3,8.1,76,0.00,BKN,,0.00,88.0,WeatherDisplay:10.37,2013-07-30 01:57:00,
2013-07-29 19:03:00,59.3,51.7,29.93,South,188,7.1,11.5,76,0.00,BKN,,0.00,86.0,WeatherDisplay:10.37,2013-07-30 02:03:00,
2013-07-29 19:10:00,59.1,51.9,29.93,South,180,3.2,4.0,77,0.00,SCT,,0.00,81.0,WeatherDisplay:10.37,2013-07-30 02:10:00,
2013-07-29 19:15:00,59.1,51.9,29.93,South,183,3.8,6.0,77,0.00,BKN,,0.00,67.0,WeatherDisplay:10.37,2013-07-30 02:15:00,
2013-07-29 19:20:00,59.3,51.7,29.93,South,181,2.5,3.5,76,0.00,BKN,,0.00,58.0,WeatherDisplay:10.37,2013-07-30 02:20:00,
2013-07-29 19:25:00,59.2,51.6,29.93,South,182,4.0,5.8,76,0.00,BKN,,0.00,51.0,WeatherDisplay:10.37,2013-07-30 02:25:00,
2013-07-29 19:30:00,59.1,51.5,29.93,SSW,192,3.0,8.0,76,0.00,BKN,,0.00,44.0,WeatherDisplay:10.37,2013-07-30 02:30:00,
2013-07-29 19:35:00,58.8,51.2,29.93,South,190,4.9,8.1,76,0.00,BKN,,0.00,37.0,WeatherDisplay:10.37,2013-07-30 02:35:00,
2013-07-29 19:40:00,58.4,51.2,29.94,South,184,3.6,4.0,77,0.00,BKN,,0.00,33.0,WeatherDisplay:10.37,2013-07-30 02:40:00,
2013-07-29 19:45:00,58.1,51.3,29.94,SSW,206,4.3,7.0,78,0.00,BKN,,0.00,28.0,WeatherDisplay:10.37,2013-07-30 02:45:00,
2013-07-29 19:50:00,57.9,51.1,29.94,South,190,6.1,9.2,78,0.00,BKN,,0.00,21.0,WeatherDisplay:10.37,2013-07-30 02:50:00,
2013-07-29 19:55:00,57.6,51.1,29.94,SSW,203,5.7,10.4,79,0.00,BKN,,0.00,18.0,WeatherDisplay:10.37,2013-07-30 02:55:00,
2013-07-29 20:00:00,57.3,50.8,29.94,South,191,7.0,11.5,79,0.00,BKN,,0.00,14.0,WeatherDisplay:10.37,2013-07-30 03:00:00,
2013-07-29 20:05:00,57.0,50.9,29.94,South,189,4.0,8.1,80,0.00,BKN,,0.00,9.0,WeatherDisplay:10.37,2013-07-30 03:05:00,
2013-07-29 20:10:00,57.0,50.9,29.94,South,189,5.3,8.1,80,0.00,BKN,,0.00,7.0,WeatherDisplay:10.37,2013-07-30 03:10:00,
2013-07-29 20:15:00,56.9,51.1,29.94,South,173,6.8,10.4,81,0.00,,,0.00,0.0,WeatherDisplay:10.37,2013-07-30 03:15:00,
2013-07-29 20:20:00,56.4,50.6,29.94,South,183,8.2,8.2,81,0.00,,,0.00,0.0,WeatherDisplay:10.37,2013-07-30 03:20:00,
2013-07-29 20:25:00,56.2,50.8,29.94,SW,216,6.8,11.5,82,0.00,,,0.00,0.0,WeatherDisplay:10.37,2013-07-30 03:25:00,
2013-07-29 20:30:00,56.0,50.9,29.95,SSW,195,5.6,15.0,83,0.00,,,0.00,0.0,WeatherDisplay:10.37,2013-07-30 03:30:00,
2013-07-29 20:35:00,55.8,50.7,29.95,SSW,201,3.9,5.8,83,0.00,,,0.00,0.0,WeatherDisplay:10.37,2013-07-30 03:35:00,
2013-07-29 20:40:00,55.6,50.8,29.95,South,188,2.4,6.9,84,0.00,,,0.00,0.0,WeatherDisplay:10.37,2013-07-30 03:40:00,
2013-07-29 20:45:00,55.3,50.5,29.95,WNW,296,2.8,6.9,84,0.00,,,0.00,0.0,WeatherDisplay:10.37,2013-07-30 03:45:00,
2013-07-29 20:50:00,55.3,50.9,29.95,WNW,292,2.3,4.6,85,0.00,,,0.00,0.0,WeatherDisplay:10.37,2013-07-30 03:50:00,
2013-07-29 20:55:00,55.2,50.8,29.95,South,180,2.8,8.1,85,0.00,,,0.00,0.0,WeatherDisplay:10.37,2013-07-30 03:55:00,
2013-07-29 21:00:00,55.1,50.7,29.95,SSW,203,2.5,3.5,85,0.00,,,0.00,0.0,WeatherDisplay:10.37,2013-07-30 04:00:00,
2013-07-29 21:02:00,55.0,50.6,29.95,SSW,200,4.0,10.4,85,0.00,,,0.00,0.0,WeatherDisplay:10.37,2013-07-30 04:02:00,
2013-07-29 21:03:00,55.0,50.6,29.95,South,173,3.3,5.8,85,0.00,,,0.00,0.0,WeatherDisplay:10.37,2013-07-30 04:03:00,
2013-07-29 21:05:00,55.0,50.6,29.95,SSW,200,6.2,11.5,85,0.00,,,0.00,0.0,WeatherDisplay:10.37,2013-07-30 04:05:00,
2013-07-29 21:06:00,54.9,50.5,29.95,SSW,196,5.0,12.0,85,0.00,,,0.00,0.0,WeatherDisplay:10.37,2013-07-30 04:06:00,
2013-07-29 21:11:00,54.8,50.7,29.95,South,182,6.4,11.0,86,0.00,,,0.00,0.0,WeatherDisplay:10.37,2013-07-30 04:11:00,
2013-07-29 21:14:00,54.8,50.7,29.95,SSW,206,12.5,19.6,86,0.00,,,0.00,0.0,WeatherDisplay:10.37,2013-07-30 04:14:00,
2013-07-29 21:19:00,54.7,50.6,29.96,South,187,6.3,11.5,86,0.00,,,0.00,0.0,WeatherDisplay:10.37,2013-07-30 04:19:00,
2013-07-29 21:24:00,54.6,50.8,29.96,South,180,3.6,6.9,87,0.00,,,0.00,0.0,WeatherDisplay:10.37,2013-07-30 04:24:00,
2013-07-29 21:29:00,54.5,50.7,29.96,South,178,5.9,6.9,87,0.00,,,0.00,0.0,WeatherDisplay:10.37,2013-07-30 04:29:00,
2013-07-29 21:34:00,54.4,50.6,29.97,South,178,5.2,8.1,87,0.00,,,0.00,0.0,WeatherDisplay:10.37,2013-07-30 04:34:00,
2013-07-29 21:39:00,54.4,50.6,29.97,SSW,204,4.8,9.2,87,0.00,,,0.00,0.0,WeatherDisplay:10.37,2013-07-30 04:39:00,
2013-07-29 21:44:00,54.4,50.6,29.97,SW,217,6.6,6.9,87,0.00,,,0.00,0.0,WeatherDisplay:10.37,2013-07-30 04:44:00,
2013-07-29 21:49:00,54.4,50.9,29.98,SSW,202,3.9,6.9,88,0.00,,,0.00,0.0,WeatherDisplay:10.37,2013-07-30 04:49:00,
2013-07-29 21:54:00,54.3,50.8,29.98,SSW,193,4.8,7.0,88,0.00,,,0.00,0.0,WeatherDisplay:10.37,2013-07-30 04:54:00,
2013-07-29 21:59:00,54.3,50.8,29.98,South,185,2.5,5.8,88,0.00,,,0.00,0.0,WeatherDisplay:10.37,2013-07-30 04:59:00,
2013-07-29 22:04:00,54.2,50.7,29.98,SSW,200,7.3,11.5,88,0.00,,,0.00,0.0,WeatherDisplay:10.37,2013-07-30 05:04:00,
2013-07-29 22:09:00,54.2,50.7,29.98,South,179,4.1,6.9,88,0.00,,,0.00,0.0,WeatherDisplay:10.37,2013-07-30 05:09:00,
2013-07-29 22:14:00,54.2,50.7,29.98,South,186,4.0,8.0,88,0.00,,,0.00,0.0,WeatherDisplay:10.37,2013-07-30 05:14:00,
2013-07-29 22:19:00,54.2,50.7,29.98,SSW,204,4.5,7.0,88,0.00,,,0.00,0.0,WeatherDisplay:10.37,2013-07-30 05:19:00,
2013-07-29 22:24:00,54.2,50.7,29.98,South,184,2.7,3.5,88,0.00,,,0.00,0.0,WeatherDisplay:10.37,2013-07-30 05:24:00,
2013-07-29 22:29:00,54.1,50.6,29.98,South,188,4.8,5.8,88,0.00,,,0.00,0.0,WeatherDisplay:10.37,2013-07-30 05:29:00,
2013-07-29 22:34:00,54.0,50.5,29.98,SSW,206,3.7,6.9,88,0.00,,,0.00,0.0,WeatherDisplay:10.37,2013-07-30 05:34:00,
2013-07-29 22:39:00,54.0,50.5,29.98,South,189,2.5,5.0,88,0.00,,,0.00,0.0,WeatherDisplay:10.37,2013-07-30 05:39:00,
2013-07-29 22:44:00,53.9,50.4,29.98,SSW,194,7.5,9.2,88,0.00,,,0.00,0.0,WeatherDisplay:10.37,2013-07-30 05:44:00,
2013-07-29 22:49:00,53.9,50.4,29.98,SSW,192,6.0,6.9,88,0.00,,,0.00,0.0,WeatherDisplay:10.37,2013-07-30 05:49:00,
2013-07-29 22:54:00,53.9,50.4,29.98,South,177,5.4,6.9,88,0.00,,,0.00,0.0,WeatherDisplay:10.37,2013-07-30 05:54:00,
2013-07-29 22:59:00,53.9,50.4,29.98,South,191,3.4,6.9,88,0.00,,,0.00,0.0,WeatherDisplay:10.37,2013-07-30 05:59:00,
2013-07-29 23:04:00,53.9,50.7,29.99,South,184,3.8,6.9,89,0.00,,,0.00,0.0,WeatherDisplay:10.37,2013-07-30 06:04:00,
2013-07-29 23:09:00,53.8,50.6,29.99,South,182,3.6,3.6,89,0.00,,,0.00,0.0,WeatherDisplay:10.37,2013-07-30 06:09:00,
2013-07-29 23:14:00,53.8,50.6,29.99,South,186,3.7,6.9,89,0.00,,,0.00,0.0,WeatherDisplay:10.37,2013-07-30 06:14:00,
2013-07-29 23:19:00,53.8,50.6,29.99,South,169,4.2,8.1,89,0.00,,,0.00,0.0,WeatherDisplay:10.37,2013-07-30 06:19:00,
2013-07-29 23:24:00,53.8,50.6,29.99,SSW,196,6.7,11.5,89,0.00,,,0.00,0.0,WeatherDisplay:10.37,2013-07-30 06:24:00,
2013-07-29 23:29:00,53.8,50.6,29.99,SSW,200,7.3,11.5,89,0.00,,,0.00,0.0,WeatherDisplay:10.37,2013-07-30 06:29:00,
2013-07-29 23:34:00,53.8,50.6,29.99,South,185,4.9,8.1,89,0.00,,,0.00,0.0,WeatherDisplay:10.37,2013-07-30 06:34:00,
2013-07-29 23:39:00,53.8,50.6,30.00,SSW,211,6.3,10.4,89,0.00,,,0.00,0.0,WeatherDisplay:10.37,2013-07-30 06:39:00,
2013-07-29 23:44:00,53.7,50.5,29.99,South,191,5.7,8.1,89,0.00,,,0.00,0.0,WeatherDisplay:10.37,2013-07-30 06:44:00,
2013-07-29 23:49:00,53.7,50.5,29.99,South,187,6.8,15.0,89,0.00,,,0.00,0.0,WeatherDisplay:10.37,2013-07-30 06:49:00,
2013-07-29 23:54:00,53.7,50.5,29.99,SSW,195,7.3,9.2,89,0.00,,,0.00,0.0,WeatherDisplay:10.37,2013-07-30 06:54:00,
2013-07-29 23:59:00,53.8,50.6,30.00,SSW,200,6.8,9.2,89,0.00,,,0.00,0.0,WeatherDisplay:10.37,2013-07-30 06:59:00,